Terminal Aerodrome Forecast
Issued by NWS Boston, MA

Home | Current Version | Previous Version | Text Only | Print | Product List | Glossary On
Versions: 1 2 3 4 5 6 7 8 9 10 11 12 13 14 15 16 17 18 19 20 21 22
000
FTUS41 KBOX 140905 AAA
TAFBDL
TAF AMD
KBDL 140905Z 1409/1512 24004KT 2SM -SN OVC025
     FM141100 34004KT 5SM -SN OVC025
     FM141400 34006KT P6SM BKN050
     FM142100 31012G24KT P6SM SKC
     FM150100 30010KT P6SM SKC
     FM150400 29006KT P6SM SKC=

USA.gov is the U.S. government's official web portal to all federal, state and local government web resources and services.